sensor_id;sensor_type;location;lat;lon;timestamp;pressure;altitude;pressure_sealevel;temperature;humidity
75317;BME280;63913;51.492;10.368;2023-03-23T00:02:26;97431.47;;;12.17;54.83
75317;BME280;63913;51.492;10.368;2023-03-23T00:04:52;97438.38;;;12.15;54.80
75317;BME280;63913;51.492;10.368;2023-03-23T00:07:19;97447.78;;;12.18;55.12
75317;BME280;63913;51.492;10.368;2023-03-23T00:09:50;97431.47;;;12.17;54.97
75317;BME280;63913;51.492;10.368;2023-03-23T00:12:24;97421.19;;;12.14;55.19
75317;BME280;63913;51.492;10.368;2023-03-23T00:14:55;97434.06;;;12.20;54.95
75317;BME280;63913;51.492;10.368;2023-03-23T00:17:20;97422.03;;;12.21;54.67
75317;BME280;63913;51.492;10.368;2023-03-23T00:19:45;97440.06;;;12.18;55.42
75317;BME280;63913;51.492;10.368;2023-03-23T00:22:13;97447.81;;;12.15;55.19
75317;BME280;63913;51.492;10.368;2023-03-23T00:24:38;97416.88;;;12.16;55.11
75317;BME280;63913;51.492;10.368;2023-03-23T00:27:03;97419.47;;;12.13;55.26
75317;BME280;63913;51.492;10.368;2023-03-23T00:29:29;97419.47;;;12.10;55.56
75317;BME280;63913;51.492;10.368;2023-03-23T00:31:54;97410.03;;;12.06;55.31
75317;BME280;63913;51.492;10.368;2023-03-23T00:34:22;97411.72;;;12.10;55.21
75317;BME280;63913;51.492;10.368;2023-03-23T00:36:54;97403.13;;;12.08;55.40
75317;BME280;63913;51.492;10.368;2023-03-23T00:39:22;97402.28;;;12.11;55.08
75317;BME280;63913;51.492;10.368;2023-03-23T00:41:49;97403.13;;;12.10;55.47
75317;BME280;63913;51.492;10.368;2023-03-23T00:44:15;97401.44;;;12.06;55.47
75317;BME280;63913;51.492;10.368;2023-03-23T00:46:45;97393.69;;;12.09;55.39
75317;BME280;63913;51.492;10.368;2023-03-23T00:49:13;97402.28;;;12.11;55.29
75317;BME280;63913;51.492;10.368;2023-03-23T00:51:39;97405.72;;;12.08;54.91
75317;BME280;63913;51.492;10.368;2023-03-23T00:54:05;97401.41;;;12.10;55.10
75317;BME280;63913;51.492;10.368;2023-03-23T00:56:30;97406.56;;;12.10;54.93
75317;BME280;63913;51.492;10.368;2023-03-23T00:58:56;97396.25;;;12.10;55.03
75317;BME280;63913;51.492;10.368;2023-03-23T01:01:21;97398.88;;;12.06;55.45
75317;BME280;63913;51.492;10.368;2023-03-23T01:03:47;97404.88;;;12.08;55.09
75317;BME280;63913;51.492;10.368;2023-03-23T01:06:12;97410.88;;;12.04;55.73
75317;BME280;63913;51.492;10.368;2023-03-23T01:08:42;97410.88;;;12.02;55.85
75317;BME280;63913;51.492;10.368;2023-03-23T01:11:15;97417.75;;;12.00;55.41
75317;BME280;63913;51.492;10.368;2023-03-23T01:13:44;97394.56;;;12.03;55.15
75317;BME280;63913;51.492;10.368;2023-03-23T01:16:10;97397.16;;;12.05;55.33
75317;BME280;63913;51.492;10.368;2023-03-23T01:18:36;97397.13;;;12.03;55.99
75317;BME280;63913;51.492;10.368;2023-03-23T01:21:10;97393.72;;;12.06;55.46
75317;BME280;63913;51.492;10.368;2023-03-23T01:23:36;97393.72;;;12.06;56.26
75317;BME280;63913;51.492;10.368;2023-03-23T01:26:11;97402.28;;;12.00;57.42
75317;BME280;63913;51.492;10.368;2023-03-23T01:28:37;97388.56;;;11.97;59.79
75317;BME280;63913;51.492;10.368;2023-03-23T01:31:07;97404.03;;;11.91;60.00
75317;BME280;63913;51.492;10.368;2023-03-23T01:33:35;97398.00;;;11.84;61.21
75317;BME280;63913;51.492;10.368;2023-03-23T01:36:10;97393.72;;;11.77;62.20
75317;BME280;63913;51.492;10.368;2023-03-23T01:38:36;97394.56;;;11.70;62.58
75317;BME280;63913;51.492;10.368;2023-03-23T01:41:03;97387.69;;;11.63;62.96
75317;BME280;63913;51.492;10.368;2023-03-23T01:43:29;97384.25;;;11.53;63.27
75317;BME280;63913;51.492;10.368;2023-03-23T01:45:55;97386.84;;;11.42;64.50
75317;BME280;63913;51.492;10.368;2023-03-23T01:48:23;97381.69;;;11.39;65.02
75317;BME280;63913;51.492;10.368;2023-03-23T01:51:09;97365.34;;;11.36;65.73
75317;BME280;63913;51.492;10.368;2023-03-23T01:53:42;97370.50;;;11.28;64.62
75317;BME280;63913;51.492;10.368;2023-03-23T01:56:09;97375.66;;;11.30;65.42
75317;BME280;63913;51.492;10.368;2023-03-23T01:58:37;97375.66;;;11.28;64.61
75317;BME280;63913;51.492;10.368;2023-03-23T02:01:09;97381.66;;;11.23;66.13
75317;BME280;63913;51.492;10.368;2023-03-23T02:03:38;97378.22;;;11.24;67.31
75317;BME280;63913;51.492;10.368;2023-03-23T02:06:04;97381.63;;;11.12;66.43
75317;BME280;63913;51.492;10.368;2023-03-23T02:08:44;97370.47;;;11.12;66.14
75317;BME280;63913;51.492;10.368;2023-03-23T02:11:21;97367.91;;;11.13;66.68
75317;BME280;63913;51.492;10.368;2023-03-23T02:13:47;97365.34;;;11.12;67.95
75317;BME280;63913;51.492;10.368;2023-03-23T02:16:31;97371.34;;;11.12;67.38
75317;BME280;63913;51.492;10.368;2023-03-23T02:22:42;97365.34;;;11.12;67.66
75317;BME280;63913;51.492;10.368;2023-03-23T02:30:40;97368.75;;;11.03;68.51
75317;BME280;63913;51.492;10.368;2023-03-23T02:36:10;97367.06;;;11.09;66.74
75317;BME280;63913;51.492;10.368;2023-03-23T02:38:44;97359.31;;;11.11;67.10
75317;BME280;63913;51.492;10.368;2023-03-23T02:41:21;97351.63;;;11.08;66.58
75317;BME280;63913;51.492;10.368;2023-03-23T02:43:49;97349.91;;;11.10;66.27
75317;BME280;63913;51.492;10.368;2023-03-23T02:46:15;97331.88;;;11.12;65.96
75317;BME280;63913;51.492;10.368;2023-03-23T02:48:42;97340.47;;;11.14;66.18
75317;BME280;63913;51.492;10.368;2023-03-23T02:51:10;97351.63;;;11.06;66.40
75317;BME280;63913;51.492;10.368;2023-03-23T02:53:39;97343.91;;;11.08;67.38
75317;BME280;63913;51.492;10.368;2023-03-23T02:56:07;97331.06;;;11.09;66.63
75317;BME280;63913;51.492;10.368;2023-03-23T02:58:34;97352.47;;;11.04;66.88
75317;BME280;63913;51.492;10.368;2023-03-23T03:01:14;97345.59;;;11.06;66.49
75317;BME280;63913;51.492;10.368;2023-03-23T03:03:41;97343.91;;;11.08;66.08
75317;BME280;63913;51.492;10.368;2023-03-23T03:09:02;97336.19;;;11.09;66.75
75317;BME280;63913;51.492;10.368;2023-03-23T03:11:34;97337.91;;;11.11;66.61
75317;BME280;63913;51.492;10.368;2023-03-23T03:14:13;97349.91;;;11.12;66.81
75317;BME280;63913;51.492;10.368;2023-03-23T03:16:46;97341.31;;;11.13;66.38
75317;BME280;63913;51.492;10.368;2023-03-23T03:19:22;97349.91;;;11.13;66.14
75317;BME280;63913;51.492;10.368;2023-03-23T03:21:52;97338.75;;;11.13;66.54
75317;BME280;63913;51.492;10.368;2023-03-23T03:24:26;97343.91;;;11.16;66.06
75317;BME280;63913;51.492;10.368;2023-03-23T03:26:53;97347.34;;;11.16;66.70
75317;BME280;63913;51.492;10.368;2023-03-23T03:29:33;97346.47;;;11.14;67.33
75317;BME280;63913;51.492;10.368;2023-03-23T03:32:02;97346.47;;;11.14;68.37
75317;BME280;63913;51.492;10.368;2023-03-23T03:34:31;97357.63;;;11.01;68.45
75317;BME280;63913;51.492;10.368;2023-03-23T03:36:58;97363.59;;;10.97;69.66
75317;BME280;63913;51.492;10.368;2023-03-23T03:39:26;97351.59;;;10.91;69.88
75317;BME280;63913;51.492;10.368;2023-03-23T03:41:52;97348.16;;;10.85;69.80
75317;BME280;63913;51.492;10.368;2023-03-23T03:44:18;97346.41;;;10.82;70.76
75317;BME280;63913;51.492;10.368;2023-03-23T03:46:43;97352.41;;;10.80;71.89
75317;BME280;63913;51.492;10.368;2023-03-23T03:49:10;97346.38;;;10.67;71.48
75317;BME280;63913;51.492;10.368;2023-03-23T03:51:41;97362.63;;;10.64;72.34
75317;BME280;63913;51.492;10.368;2023-03-23T03:54:11;97364.34;;;10.59;71.51
75317;BME280;63913;51.492;10.368;2023-03-23T03:56:37;97366.88;;;10.56;72.19
75317;BME280;63913;51.492;10.368;2023-03-23T03:59:31;97363.47;;;10.56;72.51
75317;BME280;63913;51.492;10.368;2023-03-23T04:02:18;97368.59;;;10.51;73.35
75317;BME280;63913;51.492;10.368;2023-03-23T04:04:49;97373.75;;;10.56;73.74
75317;BME280;63913;51.492;10.368;2023-03-23T04:07:15;97383.13;;;10.43;73.95
75317;BME280;63913;51.492;10.368;2023-03-23T04:09:42;97374.53;;;10.37;75.52
75317;BME280;63913;51.492;10.368;2023-03-23T04:12:09;97371.91;;;10.32;76.21
75317;BME280;63913;51.492;10.368;2023-03-23T04:15:07;97380.47;;;10.26;76.41
75317;BME280;63913;51.492;10.368;2023-03-23T04:17:34;97366.75;;;10.21;76.95
75317;BME280;63913;51.492;10.368;2023-03-23T04:20:01;97383.00;;;10.19;77.14
75317;BME280;63913;51.492;10.368;2023-03-23T04:22:32;97394.03;;;10.09;77.62
75317;BME280;63913;51.492;10.368;2023-03-23T04:24:59;97382.06;;;10.11;77.33
75317;BME280;63913;51.492;10.368;2023-03-23T04:27:26;97392.31;;;10.09;78.35
75317;BME280;63913;51.492;10.368;2023-03-23T04:29:55;97394.88;;;10.09;77.71
75317;BME280;63913;51.492;10.368;2023-03-23T04:32:39;97392.34;;;10.11;77.64
75317;BME280;63913;51.492;10.368;2023-03-23T04:35:12;97394.84;;;10.06;78.19
75317;BME280;63913;51.492;10.368;2023-03-23T04:37:45;97393.13;;;10.02;78.23
75317;BME280;63913;51.492;10.368;2023-03-23T04:40:14;97403.44;;;10.05;78.12
75317;BME280;63913;51.492;10.368;2023-03-23T04:42:46;97399.97;;;10.00;78.63
75317;BME280;63913;51.492;10.368;2023-03-23T04:45:32;97406.00;;;10.05;78.01
75317;BME280;63913;51.492;10.368;2023-03-23T04:48:00;97404.25;;;10.06;78.30
75317;BME280;63913;51.492;10.368;2023-03-23T04:50:34;97404.25;;;10.06;78.35
75317;BME280;63913;51.492;10.368;2023-03-23T04:53:09;97406.00;;;10.07;78.10
75317;BME280;63913;51.492;10.368;2023-03-23T04:55:36;97412.00;;;10.04;77.83
75317;BME280;63913;51.492;10.368;2023-03-23T04:58:06;97415.34;;;9.99;78.83
75317;BME280;63913;51.492;10.368;2023-03-23T05:00:41;97409.34;;;9.98;78.91
75317;BME280;63913;51.492;10.368;2023-03-23T05:03:10;97417.06;;;9.97;79.20
75317;BME280;63913;51.492;10.368;2023-03-23T05:05:36;97410.19;;;9.94;79.37
75317;BME280;63913;51.492;10.368;2023-03-23T05:08:05;97396.50;;;9.95;80.11
75317;BME280;63913;51.492;10.368;2023-03-23T05:10:35;97401.59;;;9.90;80.44
75317;BME280;63913;51.492;10.368;2023-03-23T05:13:06;97402.38;;;9.82;80.36
75317;BME280;63913;51.492;10.368;2023-03-23T05:15:31;97400.69;;;9.81;81.02
75317;BME280;63913;51.492;10.368;2023-03-23T05:17:58;97397.25;;;9.77;80.96
75317;BME280;63913;51.492;10.368;2023-03-23T05:20:24;97407.47;;;9.71;81.88
75317;BME280;63913;51.492;10.368;2023-03-23T05:22:52;97398.03;;;9.70;81.80
75317;BME280;63913;51.492;10.368;2023-03-23T05:25:24;97414.28;;;9.68;82.29
75317;BME280;63913;51.492;10.368;2023-03-23T05:27:57;97409.91;;;9.59;81.89
75317;BME280;63913;51.492;10.368;2023-03-23T05:30:50;97393.66;;;9.58;82.40
75317;BME280;63913;51.492;10.368;2023-03-23T05:33:16;97390.25;;;9.60;82.67
75317;BME280;63913;51.492;10.368;2023-03-23T05:36:05;97396.31;;;9.65;82.20
75317;BME280;63913;51.492;10.368;2023-03-23T05:38:52;97383.41;;;9.60;82.02
75317;BME280;63913;51.492;10.368;2023-03-23T05:41:18;97374.00;;;9.59;81.54
75317;BME280;63913;51.492;10.368;2023-03-23T05:43:44;97367.16;;;9.61;82.57
75317;BME280;63913;51.492;10.368;2023-03-23T05:46:17;97363.72;;;9.59;82.37
75317;BME280;63913;51.492;10.368;2023-03-23T05:48:43;97363.72;;;9.56;82.16
75317;BME280;63913;51.492;10.368;2023-03-23T05:51:13;97365.38;;;9.51;82.27
75317;BME280;63913;51.492;10.368;2023-03-23T05:53:42;97367.97;;;9.54;82.12
75317;BME280;63913;51.492;10.368;2023-03-23T05:56:08;97367.13;;;9.53;81.94
75317;BME280;63913;51.492;10.368;2023-03-23T05:58:47;97358.56;;;9.57;81.43
75317;BME280;63913;51.492;10.368;2023-03-23T06:01:13;97346.69;;;9.64;82.04
75317;BME280;63913;51.492;10.368;2023-03-23T06:03:39;97335.56;;;9.68;81.65
75317;BME280;63913;51.492;10.368;2023-03-23T06:06:12;97337.28;;;9.65;81.57
75317;BME280;63913;51.492;10.368;2023-03-23T06:08:51;97342.38;;;9.62;81.42
75317;BME280;63913;51.492;10.368;2023-03-23T06:11:25;97336.41;;;9.63;80.76
75317;BME280;63913;51.492;10.368;2023-03-23T06:14:09;97355.22;;;9.63;79.99
75317;BME280;63913;51.492;10.368;2023-03-23T06:16:34;97370.66;;;9.69;80.80
75317;BME280;63913;51.492;10.368;2023-03-23T06:19:05;97375.78;;;9.69;80.57
75317;BME280;63913;51.492;10.368;2023-03-23T06:21:33;97380.09;;;9.72;81.08
75317;BME280;63913;51.492;10.368;2023-03-23T06:24:04;97371.56;;;9.76;80.78
75317;BME280;63913;51.492;10.368;2023-03-23T06:26:33;97381.84;;;9.79;80.48
75317;BME280;63913;51.492;10.368;2023-03-23T06:29:02;97380.09;;;9.72;80.88
75317;BME280;63913;51.492;10.368;2023-03-23T06:31:33;97395.50;;;9.76;80.79
75317;BME280;63913;51.492;10.368;2023-03-23T06:33:59;97382.69;;;9.78;80.12
75317;BME280;63913;51.492;10.368;2023-03-23T06:36:24;97381.88;;;9.80;80.25
75317;BME280;63913;51.492;10.368;2023-03-23T06:39:11;97378.47;;;9.84;80.17
75317;BME280;63913;51.492;10.368;2023-03-23T06:42:04;97377.59;;;9.82;80.27
75317;BME280;63913;51.492;10.368;2023-03-23T06:44:33;97380.13;;;9.76;80.58
75317;BME280;63913;51.492;10.368;2023-03-23T06:46:58;97379.28;;;9.79;79.91
75317;BME280;63913;51.492;10.368;2023-03-23T06:49:27;97373.28;;;9.81;80.56
75317;BME280;63913;51.492;10.368;2023-03-23T06:52:01;97357.91;;;9.83;80.32
75317;BME280;63913;51.492;10.368;2023-03-23T06:54:29;97355.34;;;9.84;80.31
75317;BME280;63913;51.492;10.368;2023-03-23T06:56:55;97360.50;;;9.86;80.36
75317;BME280;63913;51.492;10.368;2023-03-23T06:59:20;97357.13;;;9.88;80.32
75317;BME280;63913;51.492;10.368;2023-03-23T07:01:45;97352.84;;;9.92;80.78
75317;BME280;63913;51.492;10.368;2023-03-23T07:04:12;97370.84;;;9.95;80.24
75317;BME280;63913;51.492;10.368;2023-03-23T07:06:47;97363.97;;;9.94;80.20
75317;BME280;63913;51.492;10.368;2023-03-23T07:09:13;97365.72;;;9.97;80.20
75317;BME280;63913;51.492;10.368;2023-03-23T07:11:38;97387.97;;;10.01;79.84
75317;BME280;63913;51.492;10.368;2023-03-23T07:14:17;97410.25;;;10.02;80.16
75317;BME280;63913;51.492;10.368;2023-03-23T07:16:42;97413.69;;;10.02;80.03
75317;BME280;63913;51.492;10.368;2023-03-23T07:19:07;97405.13;;;10.02;79.56
75317;BME280;63913;51.492;10.368;2023-03-23T07:21:33;97405.13;;;10.03;80.39
75317;BME280;63913;51.492;10.368;2023-03-23T07:23:58;97417.09;;;10.06;79.47
75317;BME280;63913;51.492;10.368;2023-03-23T07:26:37;97391.50;;;10.13;79.81
75317;BME280;63913;51.492;10.368;2023-03-23T07:29:03;97398.41;;;10.17;80.47
75317;BME280;63913;51.492;10.368;2023-03-23T07:31:36;97387.28;;;10.20;79.28
75317;BME280;63913;51.492;10.368;2023-03-23T07:34:02;97399.31;;;10.27;79.33
75317;BME280;63913;51.492;10.368;2023-03-23T07:36:38;97384.78;;;10.35;79.28
75317;BME280;63913;51.492;10.368;2023-03-23T07:39:06;97389.97;;;10.41;79.35
75317;BME280;63913;51.492;10.368;2023-03-23T07:41:32;97389.97;;;10.44;79.00
75317;BME280;63913;51.492;10.368;2023-03-23T07:44:00;97395.13;;;10.49;78.77
75317;BME280;63913;51.492;10.368;2023-03-23T07:46:35;97395.16;;;10.52;78.50
75317;BME280;63913;51.492;10.368;2023-03-23T07:49:09;97406.31;;;10.57;77.66
75317;BME280;63913;51.492;10.368;2023-03-23T07:51:40;97406.28;;;10.55;78.17
75317;BME280;63913;51.492;10.368;2023-03-23T07:54:08;97412.28;;;10.56;77.79
75317;BME280;63913;51.492;10.368;2023-03-23T07:56:52;97412.31;;;10.57;77.57
75317;BME280;63913;51.492;10.368;2023-03-23T07:59:27;97403.75;;;10.60;77.96
75317;BME280;63913;51.492;10.368;2023-03-23T08:01:53;97410.63;;;10.64;77.78
75317;BME280;63913;51.492;10.368;2023-03-23T08:04:41;97417.50;;;10.62;76.85
75317;BME280;63913;51.492;10.368;2023-03-23T08:07:26;97414.06;;;10.61;77.23
75317;BME280;63913;51.492;10.368;2023-03-23T08:10:12;97422.63;;;10.65;76.77
75317;BME280;63913;51.492;10.368;2023-03-23T08:12:55;97416.63;;;10.64;76.96
75317;BME280;63913;51.492;10.368;2023-03-23T08:15:24;97411.50;;;10.67;76.66
75317;BME280;63913;51.492;10.368;2023-03-23T08:17:55;97413.25;;;10.70;76.71
75317;BME280;63913;51.492;10.368;2023-03-23T08:20:39;97420.09;;;10.80;76.34
75317;BME280;63913;51.492;10.368;2023-03-23T08:23:28;97426.13;;;10.87;76.27
75317;BME280;63913;51.492;10.368;2023-03-23T08:26:21;97426.19;;;10.93;76.00
75317;BME280;63913;51.492;10.368;2023-03-23T08:29:13;97432.16;;;10.96;75.55
75317;BME280;63913;51.492;10.368;2023-03-23T08:32:05;97417.63;;;11.01;75.24
75317;BME280;63913;51.492;10.368;2023-03-23T08:35:03;97430.50;;;11.07;74.59
75317;BME280;63913;51.492;10.368;2023-03-23T08:37:48;97436.50;;;11.11;74.84
75317;BME280;63913;51.492;10.368;2023-03-23T08:40:31;97428.81;;;11.16;75.17
75317;BME280;63913;51.492;10.368;2023-03-23T08:43:23;97429.69;;;11.18;74.58
75317;BME280;63913;51.492;10.368;2023-03-23T08:46:07;97434.81;;;11.19;74.05
75317;BME280;63913;51.492;10.368;2023-03-23T08:48:57;97440.84;;;11.23;73.91
75317;BME280;63913;51.492;10.368;2023-03-23T08:51:41;97441.69;;;11.23;74.20
75317;BME280;63913;51.492;10.368;2023-03-23T08:54:30;97433.97;;;11.23;73.70
75317;BME280;63913;51.492;10.368;2023-03-23T08:57:18;97432.28;;;11.25;73.02
75317;BME280;63913;51.492;10.368;2023-03-23T09:00:05;97427.13;;;11.24;72.83
75317;BME280;63913;51.492;10.368;2023-03-23T09:02:56;97434.00;;;11.31;73.50
75317;BME280;63913;51.492;10.368;2023-03-23T09:05:27;97420.28;;;11.33;72.05
75317;BME280;63913;51.492;10.368;2023-03-23T09:08:26;97439.19;;;11.43;72.77
75317;BME280;63913;51.492;10.368;2023-03-23T09:10:55;97439.19;;;11.51;72.48
75317;BME280;63913;51.492;10.368;2023-03-23T09:13:20;97434.88;;;11.54;70.87
75317;BME280;63913;51.492;10.368;2023-03-23T09:15:45;97422.03;;;11.57;71.30
75317;BME280;63913;51.492;10.368;2023-03-23T09:18:11;97424.59;;;11.66;71.90
75317;BME280;63913;51.492;10.368;2023-03-23T09:20:37;97421.19;;;11.73;71.38
75317;BME280;63913;51.492;10.368;2023-03-23T09:23:03;97428.06;;;11.76;70.56
75317;BME280;63913;51.492;10.368;2023-03-23T09:25:30;97418.63;;;11.85;69.93
75317;BME280;63913;51.492;10.368;2023-03-23T09:27:58;97422.91;;;11.85;70.14
75317;BME280;63913;51.492;10.368;2023-03-23T09:30:27;97428.06;;;11.87;70.09
75317;BME280;63913;51.492;10.368;2023-03-23T09:32:53;97440.06;;;11.92;69.97
75317;BME280;63913;51.492;10.368;2023-03-23T09:35:20;97429.78;;;11.94;68.62
75317;BME280;63913;51.492;10.368;2023-03-23T09:37:47;97438.34;;;12.00;68.76
75317;BME280;63913;51.492;10.368;2023-03-23T09:40:17;97437.50;;;12.12;69.15
75317;BME280;63913;51.492;10.368;2023-03-23T09:43:05;97441.78;;;12.19;67.87
75317;BME280;63913;51.492;10.368;2023-03-23T09:45:46;97428.03;;;12.18;67.75
75317;BME280;63913;51.492;10.368;2023-03-23T09:48:29;97436.63;;;12.20;68.56
75317;BME280;63913;51.492;10.368;2023-03-23T09:51:13;97439.19;;;12.17;67.34
75317;BME280;63913;51.492;10.368;2023-03-23T09:53:45;97432.34;;;12.06;68.69
75317;BME280;63913;51.492;10.368;2023-03-23T09:56:15;97441.81;;;11.95;68.00
75317;BME280;63913;51.492;10.368;2023-03-23T09:58:50;97443.53;;;11.97;69.07
75317;BME280;63913;51.492;10.368;2023-03-23T10:01:27;97436.66;;;11.89;67.85
75317;BME280;63913;51.492;10.368;2023-03-23T10:04:17;97450.38;;;11.92;69.55
75317;BME280;63913;51.492;10.368;2023-03-23T10:06:47;97439.22;;;11.93;68.35
75317;BME280;63913;51.492;10.368;2023-03-23T10:09:16;97443.53;;;11.96;68.67
75317;BME280;63913;51.492;10.368;2023-03-23T10:12:02;97446.09;;;12.06;68.95
75317;BME280;63913;51.492;10.368;2023-03-23T10:17:14;97428.91;;;12.14;67.75
75317;BME280;63913;51.492;10.368;2023-03-23T10:22:10;97445.22;;;12.29;67.53
75317;BME280;63913;51.492;10.368;2023-03-23T10:24:49;97428.88;;;12.37;66.15
75317;BME280;63913;51.492;10.368;2023-03-23T10:27:26;97436.59;;;12.40;65.66
75317;BME280;63913;51.492;10.368;2023-03-23T10:30:03;97436.59;;;12.48;64.52
75317;BME280;63913;51.492;10.368;2023-03-23T10:32:57;97415.06;;;12.58;64.81
75317;BME280;63913;51.492;10.368;2023-03-23T10:35:33;97434.81;;;12.57;63.89
75317;BME280;63913;51.492;10.368;2023-03-23T10:38:03;97441.66;;;12.66;64.47
75317;BME280;63913;51.492;10.368;2023-03-23T10:40:30;97435.63;;;12.76;64.14
75317;BME280;63913;51.492;10.368;2023-03-23T10:42:57;97430.50;;;12.72;62.97
75317;BME280;63913;51.492;10.368;2023-03-23T10:45:28;97422.78;;;12.63;62.48
75317;BME280;63913;51.492;10.368;2023-03-23T10:48:14;97433.13;;;12.52;62.27
75317;BME280;63913;51.492;10.368;2023-03-23T10:50:42;97435.72;;;12.53;63.09
75317;BME280;63913;51.492;10.368;2023-03-23T10:53:21;97427.97;;;12.53;62.11
75317;BME280;63913;51.492;10.368;2023-03-23T10:55:48;97436.53;;;12.57;63.00
75317;BME280;63913;51.492;10.368;2023-03-23T10:58:29;97429.66;;;12.64;63.09
75317;BME280;63913;51.492;10.368;2023-03-23T11:00:56;97449.44;;;12.60;61.36
75317;BME280;63913;51.492;10.368;2023-03-23T11:06:09;97443.41;;;12.63;62.38
75317;BME280;63913;51.492;10.368;2023-03-23T11:08:46;97439.13;;;12.60;62.08
75317;BME280;63913;51.492;10.368;2023-03-23T11:11:24;97446.84;;;12.57;61.53
75317;BME280;63913;51.492;10.368;2023-03-23T11:14:00;97474.38;;;12.61;62.33
75317;BME280;63913;51.492;10.368;2023-03-23T11:16:29;97464.91;;;12.61;62.16
75317;BME280;63913;51.492;10.368;2023-03-23T11:18:55;97458.03;;;12.64;62.70
75317;BME280;63913;51.492;10.368;2023-03-23T11:21:23;97460.59;;;12.65;61.77
75317;BME280;63913;51.492;10.368;2023-03-23T11:23:55;97473.44;;;12.82;60.98
75317;BME280;63913;51.492;10.368;2023-03-23T11:26:33;97458.78;;;12.90;60.62
75317;BME280;63913;51.492;10.368;2023-03-23T11:29:03;97452.75;;;12.94;59.78
75317;BME280;63913;51.492;10.368;2023-03-23T11:31:33;97442.44;;;12.95;60.53
75317;BME280;63913;51.492;10.368;2023-03-23T11:34:05;97442.44;;;12.94;59.39
75317;BME280;63913;51.492;10.368;2023-03-23T11:36:40;97437.31;;;12.88;58.67
75317;BME280;63913;51.492;10.368;2023-03-23T11:39:23;97457.94;;;12.85;59.90
75317;BME280;63913;51.492;10.368;2023-03-23T11:41:49;97472.63;;;12.69;58.42
75317;BME280;63913;51.492;10.368;2023-03-23T11:44:15;97455.44;;;12.65;58.74
75317;BME280;63913;51.492;10.368;2023-03-23T11:46:49;97467.50;;;12.61;58.70
75317;BME280;63913;51.492;10.368;2023-03-23T11:49:26;97470.94;;;12.60;58.69
75317;BME280;63913;51.492;10.368;2023-03-23T11:51:58;97484.69;;;12.61;58.23
75317;BME280;63913;51.492;10.368;2023-03-23T11:54:30;97476.09;;;12.59;57.99
75317;BME280;63913;51.492;10.368;2023-03-23T11:56:58;97465.78;;;12.64;58.06
75317;BME280;63913;51.492;10.368;2023-03-23T12:04:58;97470.88;;;12.80;60.05
75317;BME280;63913;51.492;10.368;2023-03-23T12:07:53;97474.25;;;12.91;60.75
75317;BME280;63913;51.492;10.368;2023-03-23T12:10:32;97470.81;;;12.95;60.98
75317;BME280;63913;51.492;10.368;2023-03-23T12:13:16;97469.97;;;12.93;60.55
75317;BME280;63913;51.492;10.368;2023-03-23T12:15:57;97479.38;;;13.10;61.07
75317;BME280;63913;51.492;10.368;2023-03-23T12:24:36;97473.06;;;13.62;59.26
75317;BME280;63913;51.492;10.368;2023-03-23T12:27:43;97482.41;;;13.85;59.35
75317;BME280;63913;51.492;10.368;2023-03-23T12:30:30;97466.06;;;13.81;58.15
75317;BME280;63913;51.492;10.368;2023-03-23T12:33:29;97467.78;;;13.79;58.70
75317;BME280;63913;51.492;10.368;2023-03-23T12:36:13;97490.97;;;13.90;58.99
75317;BME280;63913;51.492;10.368;2023-03-23T12:41:31;97473.69;;;13.98;57.22
75317;BME280;63913;51.492;10.368;2023-03-23T12:44:02;97459.78;;;14.11;56.75
75317;BME280;63913;51.492;10.368;2023-03-23T12:49:20;97469.66;;;14.66;56.17
75317;BME280;63913;51.492;10.368;2023-03-23T12:52:01;97442.28;;;14.43;55.65
75317;BME280;63913;51.492;10.368;2023-03-23T12:54:35;97425.78;;;14.57;55.13
75317;BME280;63913;51.492;10.368;2023-03-23T12:57:24;97448.34;;;14.42;54.75
75317;BME280;63913;51.492;10.368;2023-03-23T13:00:06;97449.16;;;14.47;55.47
75317;BME280;63913;51.492;10.368;2023-03-23T13:03:00;97434.72;;;14.21;55.15
75317;BME280;63913;51.492;10.368;2023-03-23T13:05:40;97433.94;;;14.12;56.37
75317;BME280;63913;51.492;10.368;2023-03-23T13:08:21;97446.25;;;13.80;56.65
75317;BME280;63913;51.492;10.368;2023-03-23T13:10:49;97448.03;;;13.78;57.71
75317;BME280;63913;51.492;10.368;2023-03-23T13:13:23;97472.25;;;13.54;58.04
75317;BME280;63913;51.492;10.368;2023-03-23T13:16:02;97443.09;;;13.40;58.47
75317;BME280;63913;51.492;10.368;2023-03-23T13:21:14;97454.31;;;13.36;59.56
75317;BME280;63913;51.492;10.368;2023-03-23T13:23:45;97452.59;;;13.30;59.80
75317;BME280;63913;51.492;10.368;2023-03-23T13:26:14;97450.88;;;13.31;59.60
75317;BME280;63913;51.492;10.368;2023-03-23T13:29:00;97444.00;;;13.36;59.93
75317;BME280;63913;51.492;10.368;2023-03-23T13:31:36;97441.41;;;13.38;60.74
75317;BME280;63913;51.492;10.368;2023-03-23T13:34:21;97449.19;;;13.28;60.40
75317;BME280;63913;51.492;10.368;2023-03-23T13:36:57;97440.59;;;13.23;60.37
75317;BME280;63913;51.492;10.368;2023-03-23T13:39:28;97444.81;;;13.38;60.39
75317;BME280;63913;51.492;10.368;2023-03-23T13:42:19;97445.66;;;13.45;60.28
75317;BME280;63913;51.492;10.368;2023-03-23T13:49:59;97434.44;;;13.49;60.05
75317;BME280;63913;51.492;10.368;2023-03-23T13:55:21;97439.66;;;13.40;61.00
75317;BME280;63913;51.492;10.368;2023-03-23T14:05:40;97458.72;;;13.14;60.98
75317;BME280;63913;51.492;10.368;2023-03-23T14:10:48;97434.63;;;13.17;61.50
75317;BME280;63913;51.492;10.368;2023-03-23T14:13:30;97441.50;;;13.19;61.60
75317;BME280;63913;51.492;10.368;2023-03-23T14:16:02;97450.94;;;13.23;61.18
75317;BME280;63913;51.492;10.368;2023-03-23T14:18:39;97450.88;;;13.31;61.42
75317;BME280;63913;51.492;10.368;2023-03-23T14:21:14;97446.13;;;14.00;60.77
75317;BME280;63913;51.492;10.368;2023-03-23T14:23:40;97440.03;;;14.05;59.58
75317;BME280;63913;51.492;10.368;2023-03-23T14:26:12;97448.63;;;14.09;59.37